Time;durP1;ratioP1;P1;durP2;ratioP2;P2;SDS_P1;SDS_P2;PMS_P1;PMS_P2;Temp;Humidity;BMP_temperature;BMP_pressure;BME280_temperature;BME280_humidity;BME280_pressure;Samples;Min_cycle;Max_cycle;Signal;HPM_P1;HPM_P2
2022/12/08 00:03:32;;;;;;;33.08;16.25;;;;;;;-144.32;100.00;68061.97;10471119;28;20033;-79
2022/12/08 00:13:54;;;;;;;32.15;16.05;;;;;;;-144.32;100.00;68061.97;10503351;28;20092;-77
2022/12/08 00:18:55;;;;;;;32.70;17.00;;;;;;;-144.32;100.00;68061.97;10481562;28;20494;-82
2022/12/08 00:23:56;;;;;;;32.42;16.42;;;;;;;-144.32;100.00;68061.97;10440344;28;20049;-80
2022/12/08 00:28:56;;;;;;;35.22;18.02;;;;;;;-144.32;100.00;68061.97;10445303;28;20139;-80
2022/12/08 00:33:57;;;;;;;34.45;17.75;;;;;;;-144.32;100.00;68061.97;10465452;28;20088;-80
2022/12/08 00:39:00;;;;;;;34.58;17.00;;;;;;;-144.32;100.00;68061.97;10501117;28;20021;-82
2022/12/08 00:44:01;;;;;;;37.43;19.00;;;;;;;-144.32;100.00;68061.97;10473864;28;20854;-85
2022/12/08 00:49:05;;;;;;;38.70;19.40;;;;;;;-144.32;100.00;68061.97;10444487;28;20373;-81
2022/12/08 00:54:05;;;;;;;42.65;19.98;;;;;;;-144.32;100.00;68061.97;10451168;28;20044;-80
2022/12/08 00:59:06;;;;;;;40.30;20.00;;;;;;;-144.32;100.00;68061.97;10473744;28;20135;-79
2022/12/08 01:04:10;;;;;;;39.25;17.98;;;;;;;-144.32;100.00;68061.97;10459546;28;20048;-79
2022/12/08 01:09:12;;;;;;;36.35;17.58;;;;;;;-144.32;100.00;68061.97;10484668;28;20059;-78
2022/12/08 01:14:14;;;;;;;35.22;17.85;;;;;;;-144.32;100.00;68061.97;10485464;28;20543;-79
2022/12/08 01:19:16;;;;;;;41.20;19.27;;;;;;;-144.32;100.00;68061.97;10447255;28;20053;-82
2022/12/08 01:24:19;;;;;;;41.38;19.55;;;;;;;-144.32;100.00;68061.97;10446794;28;20037;-81
2022/12/08 01:29:20;;;;;;;38.08;18.98;;;;;;;-144.32;100.00;68061.97;10448528;28;20833;-84
2022/12/08 01:34:20;;;;;;;34.90;17.90;;;;;;;-144.32;100.00;68061.97;10451420;28;20079;-83
2022/12/08 01:39:21;;;;;;;34.30;17.23;;;;;;;-144.32;100.00;68061.97;10450011;28;20049;-85
2022/12/08 01:44:21;;;;;;;36.15;17.63;;;;;;;-144.32;100.00;68061.97;10467375;28;20549;-83
2022/12/08 01:49:29;;;;;;;38.33;17.52;;;;;;;-144.32;100.00;68061.97;10444284;28;20061;-80
2022/12/08 01:54:35;;;;;;;39.00;18.48;;;;;;;-144.32;100.00;68061.97;10463992;28;20056;-81
2022/12/08 01:59:41;;;;;;;38.88;18.92;;;;;;;-144.32;100.00;68061.97;10475014;28;20123;-79
2022/12/08 02:04:42;;;;;;;40.00;19.15;;;;;;;-144.32;100.00;68061.97;10466985;28;20064;-84
2022/12/08 02:09:43;;;;;;;39.13;19.05;;;;;;;-144.32;100.00;68061.97;10452001;28;20049;-78
2022/12/08 02:14:44;;;;;;;35.90;17.50;;;;;;;-144.32;100.00;68061.97;10448326;28;20382;-81
2022/12/08 02:19:56;;;;;;;43.35;18.40;;;;;;;-144.32;100.00;68061.97;10460727;28;20112;-80
2022/12/08 02:25:06;;;;;;;35.72;17.08;;;;;;;-144.32;100.00;68061.97;10481746;28;20067;-78
2022/12/08 02:30:24;;;;;;;35.28;16.98;;;;;;;-144.32;100.00;68061.97;10490515;28;20049;-81
2022/12/08 02:35:53;;;;;;;35.13;18.02;;;;;;;-144.32;100.00;68061.97;10459979;28;20081;-79
2022/12/08 02:41:12;;;;;;;40.10;19.42;;;;;;;-144.32;100.00;68061.97;10449969;28;20080;-84
2022/12/08 02:46:30;;;;;;;42.33;19.27;;;;;;;-144.32;100.00;68061.97;10452934;28;20109;-82
2022/12/08 02:51:31;;;;;;;45.17;22.15;;;;;;;-144.32;100.00;68061.97;10445217;28;20041;-83
2022/12/08 02:56:58;;;;;;;44.13;20.35;;;;;;;-144.32;100.00;68061.97;10453341;28;20037;-80
2022/12/08 03:02:18;;;;;;;40.55;19.80;;;;;;;-144.32;100.00;68061.97;10454861;28;20049;-89
2022/12/08 03:07:22;;;;;;;39.03;19.05;;;;;;;-144.32;100.00;68061.97;10488493;28;20100;-80
2022/12/08 03:12:37;;;;;;;40.03;19.88;;;;;;;-144.32;100.00;68061.97;10509845;28;20029;-78
2022/12/08 03:17:43;;;;;;;39.97;19.15;;;;;;;-144.32;100.00;68061.97;10488911;28;20051;-79
2022/12/08 03:22:46;;;;;;;37.80;19.20;;;;;;;-144.32;100.00;68061.97;10499763;28;20025;-77
2022/12/08 03:27:47;;;;;;;33.43;17.60;;;;;;;-144.32;100.00;68061.97;10501112;28;20057;-79
2022/12/08 03:33:02;;;;;;;38.22;18.17;;;;;;;-144.32;100.00;68061.97;10472724;28;20041;-82
2022/12/08 03:38:11;;;;;;;37.75;18.67;;;;;;;-144.32;100.00;68061.97;10461760;28;20041;-83
2022/12/08 03:43:12;;;;;;;30.73;17.73;;;;;;;-144.32;100.00;68061.97;10479760;28;20046;-79
2022/12/08 03:48:12;;;;;;;36.17;17.63;;;;;;;-144.32;100.00;68061.97;10476642;28;20041;-81
2022/12/08 03:53:14;;;;;;;34.15;17.38;;;;;;;-144.32;100.00;68061.97;10492007;28;20106;-82
2022/12/08 03:58:14;;;;;;;32.60;16.40;;;;;;;-144.32;100.00;68061.97;10482454;28;20092;-85
2022/12/08 04:03:15;;;;;;;35.25;17.23;;;;;;;-144.32;100.00;68061.97;10448380;28;20045;-83
2022/12/08 04:08:16;;;;;;;35.15;16.75;;;;;;;-144.32;100.00;68061.97;10450722;28;20901;-86
2022/12/08 04:13:17;;;;;;;36.50;17.92;;;;;;;-144.32;100.00;68061.97;10440093;28;20055;-84
2022/12/08 04:18:17;;;;;;;33.42;16.45;;;;;;;-144.32;100.00;68061.97;10473598;28;20408;-84
2022/12/08 04:23:18;;;;;;;29.33;15.50;;;;;;;-144.32;100.00;68061.97;10450376;28;20100;-82
2022/12/08 04:28:18;;;;;;;32.28;15.38;;;;;;;-144.32;100.00;68061.97;10450952;28;20048;-83
2022/12/08 04:33:19;;;;;;;30.48;14.73;;;;;;;-144.32;100.00;68061.97;10460460;28;20041;-81
2022/12/08 04:38:20;;;;;;;32.03;15.13;;;;;;;-144.32;100.00;68061.97;10458803;28;20052;-82
2022/12/08 04:43:22;;;;;;;31.33;16.10;;;;;;;-144.32;100.00;68061.97;10457355;28;20068;-81
2022/12/08 04:48:22;;;;;;;26.63;14.13;;;;;;;-144.32;100.00;68061.97;10451579;28;20053;-81
2022/12/08 04:53:25;;;;;;;31.70;16.02;;;;;;;-144.32;100.00;68061.97;10450877;28;20045;-81
2022/12/08 04:58:26;;;;;;;32.33;15.70;;;;;;;-144.32;100.00;68061.97;10449436;28;20033;-83
2022/12/08 05:03:26;;;;;;;32.92;14.93;;;;;;;-144.32;100.00;68061.97;10435637;28;20049;-81
2022/12/08 05:08:28;;;;;;;29.23;14.88;;;;;;;-144.32;100.00;68061.97;10445164;28;20041;-80
2022/12/08 05:13:29;;;;;;;28.65;14.88;;;;;;;-144.32;100.00;68061.97;10445939;28;20049;-82
2022/12/08 05:18:31;;;;;;;27.83;13.50;;;;;;;-144.32;100.00;68061.97;10448136;28;20037;-81
2022/12/08 05:23:34;;;;;;;34.38;16.52;;;;;;;-144.32;100.00;68061.97;10447088;28;20071;-81
2022/12/08 05:28:35;;;;;;;32.45;15.27;;;;;;;-144.32;100.00;68061.97;10445065;28;20536;-81
2022/12/08 05:33:36;;;;;;;31.52;15.75;;;;;;;-144.32;100.00;68061.97;10447332;28;20049;-81
2022/12/08 05:38:38;;;;;;;32.08;14.98;;;;;;;-144.32;100.00;68061.97;10428605;28;20132;-80
2022/12/08 05:43:39;;;;;;;32.37;16.57;;;;;;;-144.32;100.00;68061.97;10450690;28;20029;-80
2022/12/08 05:48:39;;;;;;;32.80;16.23;;;;;;;-144.32;100.00;68061.97;10449608;28;20033;-80
2022/12/08 05:53:40;;;;;;;34.95;16.67;;;;;;;-144.32;100.00;68061.97;10467611;28;20036;-81
2022/12/08 05:58:41;;;;;;;30.02;15.13;;;;;;;-144.32;100.00;68061.97;10469721;28;20057;-80
2022/12/08 06:03:42;;;;;;;33.63;15.38;;;;;;;-144.32;100.00;68061.97;10449522;28;20402;-78
2022/12/08 06:08:43;;;;;;;34.42;16.45;;;;;;;-144.32;100.00;68061.97;10456030;28;20048;-86
2022/12/08 06:13:43;;;;;;;35.92;17.17;;;;;;;-144.32;100.00;68061.97;10468963;28;20037;-84
2022/12/08 06:18:44;;;;;;;33.75;15.73;;;;;;;-144.32;100.00;68061.97;10487794;28;20017;-81
2022/12/08 06:23:50;;;;;;;41.25;18.98;;;;;;;-144.32;100.00;68061.97;10472757;28;20069;-84
2022/12/08 06:28:51;;;;;;;33.83;16.42;;;;;;;-144.32;100.00;68061.97;10478514;28;20040;-83
2022/12/08 06:33:54;;;;;;;;;;;;;;;-144.32;100.00;68061.97;10496709;28;20056;-80
2022/12/08 06:38:55;;;;;;;33.40;16.48;;;;;;;-144.32;100.00;68061.97;10492121;28;19925;-79
2022/12/08 06:43:56;;;;;;;33.75;16.10;;;;;;;-144.32;100.00;68061.97;10485277;28;20060;-83
2022/12/08 06:48:57;;;;;;;36.35;16.52;;;;;;;-144.32;100.00;68061.97;10452495;28;20106;-83
2022/12/08 06:53:58;;;;;;;34.65;17.20;;;;;;;-144.32;100.00;68061.97;10479560;28;20086;-85
2022/12/08 06:59:00;;;;;;;34.47;16.98;;;;;;;-144.32;100.00;68061.97;10486988;28;20140;-80
2022/12/08 07:04:00;;;;;;;32.95;16.15;;;;;;;-144.32;100.00;68061.97;10457911;28;20584;-80
2022/12/08 07:09:01;;;;;;;33.35;16.17;;;;;;;-144.32;100.00;68061.97;10447423;28;20036;-84
2022/12/08 07:14:02;;;;;;;34.10;16.73;;;;;;;-144.32;100.00;68061.97;10458884;28;20516;-80
2022/12/08 07:19:02;;;;;;;33.17;16.20;;;;;;;-144.32;100.00;68061.97;10443048;28;20471;-78
2022/12/08 07:24:03;;;;;;;29.63;14.55;;;;;;;-144.32;100.00;68061.97;10449446;28;20469;-84
2022/12/08 07:29:03;;;;;;;31.42;15.23;;;;;;;-144.32;100.00;68061.97;10452730;28;20037;-79
2022/12/08 07:34:04;;;;;;;33.22;15.13;;;;;;;-144.32;100.00;68061.97;10470017;28;20132;-81
2022/12/08 07:39:07;;;;;;;33.65;15.73;;;;;;;-144.32;100.00;68061.97;10455754;28;20080;-83
2022/12/08 07:44:11;;;;;;;27.90;14.50;;;;;;;-144.32;100.00;68061.97;10447479;28;20088;-82
2022/12/08 07:49:12;;;;;;;31.27;14.63;;;;;;;-144.32;100.00;68061.97;10449466;28;20421;-83
2022/12/08 07:54:13;;;;;;;32.83;14.82;;;;;;;-144.32;100.00;68061.97;10447118;28;20061;-80
2022/12/08 07:59:14;;;;;;;32.60;14.82;;;;;;;-144.32;100.00;68061.97;10464523;28;20044;-83
2022/12/08 08:04:14;;;;;;;30.95;15.13;;;;;;;-144.32;100.00;68061.97;10448510;28;20111;-81
2022/12/08 08:09:15;;;;;;;32.63;15.13;;;;;;;-144.32;100.00;68061.97;10449327;28;20049;-83
2022/12/08 08:14:15;;;;;;;28.40;14.65;;;;;;;-144.32;100.00;68061.97;10457986;28;20041;-82
2022/12/08 08:19:16;;;;;;;29.83;14.60;;;;;;;-144.32;100.00;68061.97;10465805;28;20033;-82
2022/12/08 08:24:17;;;;;;;26.48;15.10;;;;;;;-144.32;100.00;68061.97;10465844;28;20052;-84
2022/12/08 08:29:18;;;;;;;25.45;13.88;;;;;;;-144.32;100.00;68061.97;10473880;28;20107;-84
2022/12/08 08:34:18;;;;;;;30.17;14.45;;;;;;;-144.32;100.00;68061.97;10445148;28;20112;-81
2022/12/08 08:39:20;;;;;;;26.50;13.95;;;;;;;-144.32;100.00;68061.97;10460048;28;20041;-81
2022/12/08 08:44:21;;;;;;;26.55;13.45;;;;;;;-144.32;100.00;68061.97;10455159;28;20124;-83
2022/12/08 08:49:22;;;;;;;26.95;14.57;;;;;;;-144.32;100.00;68061.97;10451761;28;20486;-82
2022/12/08 08:54:23;;;;;;;26.50;14.05;;;;;;;-144.32;100.00;68061.97;10450737;28;20036;-84
2022/12/08 08:59:24;;;;;;;27.20;13.25;;;;;;;-144.32;100.00;68061.97;10449331;28;20037;-83
2022/12/08 09:04:25;;;;;;;25.33;12.95;;;;;;;-144.32;100.00;68061.97;10462531;28;20055;-83
2022/12/08 09:09:26;;;;;;;27.95;12.85;;;;;;;-144.32;100.00;68061.97;10467047;28;20038;-83
2022/12/08 09:14:27;;;;;;;26.85;13.10;;;;;;;-144.32;100.00;68061.97;10490724;28;20024;-80
2022/12/08 09:19:28;;;;;;;23.75;11.80;;;;;;;-144.32;100.00;68061.97;10494463;28;20087;-78
2022/12/08 09:24:28;;;;;;;25.35;12.05;;;;;;;-144.32;100.00;68061.97;10479631;28;20036;-81
2022/12/08 09:29:30;;;;;;;23.42;12.07;;;;;;;-144.32;100.00;68061.97;10489919;28;20052;-79
2022/12/08 09:34:30;;;;;;;22.15;12.18;;;;;;;-144.32;100.00;68061.97;10468220;28;20041;-79
2022/12/08 09:39:31;;;;;;;24.73;12.00;;;;;;;-144.32;100.00;68061.97;10594975;22;20041;-79
2022/12/08 09:44:58;;;;;;;29.30;12.27;;;;;;;-144.32;100.00;68061.97;10479437;28;20029;-80
2022/12/08 09:50:08;;;;;;;22.88;12.27;;;;;;;-144.32;100.00;68061.97;10492679;28;20060;-80
2022/12/08 09:55:18;;;;;;;18.23;10.73;;;;;;;-144.32;100.00;68061.97;10470514;28;20029;-81
2022/12/08 10:00:19;;;;;;;20.23;11.30;;;;;;;-144.32;100.00;68061.97;10461511;28;20079;-84
2022/12/08 10:05:20;;;;;;;18.38;10.25;;;;;;;-144.32;100.00;68061.97;10474024;28;20067;-80
2022/12/08 10:10:32;;;;;;;21.38;11.45;;;;;;;-144.32;100.00;68061.97;10473109;28;20112;-79
2022/12/08 10:15:42;;;;;;;19.67;10.52;;;;;;;-144.32;100.00;68061.97;10494138;28;20028;-80
2022/12/08 10:20:47;;;;;;;17.73;9.70;;;;;;;-144.32;100.00;68061.97;10491412;28;20031;-78
2022/12/08 10:25:52;;;;;;;16.80;9.10;;;;;;;-144.32;100.00;68061.97;10496089;28;20159;-77
2022/12/08 10:30:52;;;;;;;15.07;8.95;;;;;;;-144.32;100.00;68061.97;10489629;28;20056;-77
2022/12/08 10:35:57;;;;;;;16.38;8.85;;;;;;;-144.32;100.00;68061.97;10482682;28;20120;-79
2022/12/08 10:41:03;;;;;;;14.25;8.35;;;;;;;-144.32;100.00;68061.97;10429012;28;20044;-81
2022/12/08 10:46:14;;;;;;;14.50;8.10;;;;;;;-144.32;100.00;68061.97;10437073;28;20037;-80
2022/12/08 10:51:27;;;;;;;14.43;8.23;;;;;;;-144.32;100.00;68061.97;10461459;28;20504;-80
2022/12/08 10:56:31;;;;;;;15.83;9.03;;;;;;;-144.32;100.00;68061.97;10462498;28;20041;-81
2022/12/08 11:01:37;;;;;;;12.10;7.15;;;;;;;-144.32;100.00;68061.97;10443144;28;20048;-81
2022/12/08 11:06:41;;;;;;;14.55;7.57;;;;;;;-144.32;100.00;68061.97;10442869;28;20044;-82
2022/12/08 11:11:55;;;;;;;14.50;8.07;;;;;;;-144.32;100.00;68061.97;10450731;28;20056;-82
2022/12/08 11:17:07;;;;;;;14.38;7.55;;;;;;;-144.32;100.00;68061.97;10442961;28;20132;-82
2022/12/08 11:22:31;;;;;;;12.38;7.45;;;;;;;-144.32;100.00;68061.97;10437981;28;20124;-82
2022/12/08 11:27:33;;;;;;;12.73;8.05;;;;;;;-144.32;100.00;68061.97;10443179;28;20124;-81
2022/12/08 11:32:35;;;;;;;13.27;7.50;;;;;;;-144.32;100.00;68061.97;10445949;28;20068;-84
2022/12/08 11:37:40;;;;;;;28.23;15.15;;;;;;;-144.32;100.00;68061.97;10452020;28;20561;-82
2022/12/08 11:42:59;;;;;;;13.60;8.20;;;;;;;-144.32;100.00;68061.97;10446880;28;20448;-82
2022/12/08 11:48:08;;;;;;;15.55;8.48;;;;;;;-144.32;100.00;68061.97;10454388;28;20123;-82
2022/12/08 11:53:21;;;;;;;16.48;8.05;;;;;;;-144.32;100.00;68061.97;10464505;28;20044;-81
2022/12/08 11:58:35;;;;;;;13.67;7.07;;;;;;;-144.32;100.00;68061.97;10482905;28;20223;-82
2022/12/08 12:03:46;;;;;;;12.47;8.13;;;;;;;-144.32;100.00;68061.97;10482340;28;20037;-80
2022/12/08 12:09:21;;;;;;;12.88;8.45;;;;;;;-144.32;100.00;68061.97;10513824;22;20552;-84
2022/12/08 12:14:48;;;;;;;17.75;8.05;;;;;;;-144.32;100.00;68061.97;10385360;28;20037;-80
2022/12/08 12:19:50;;;;;;;12.85;8.73;;;;;;;-144.32;100.00;68061.97;10405157;28;20048;-80
2022/12/08 12:24:51;;;;;;;13.63;7.85;;;;;;;-144.32;100.00;68061.97;10412397;28;20038;-84
2022/12/08 12:30:07;;;;;;;14.65;8.13;;;;;;;-144.32;100.00;68061.97;10390276;28;20087;-77
2022/12/08 12:35:25;;;;;;;13.25;7.78;;;;;;;-144.32;100.00;68061.97;10357993;28;20156;-78
2022/12/08 12:40:27;;;;;;;13.15;7.93;;;;;;;-144.32;100.00;68061.97;10401981;28;20099;-81
2022/12/08 12:45:32;;;;;;;13.75;8.60;;;;;;;-144.32;100.00;68061.97;10364174;28;20034;-79
2022/12/08 12:50:33;;;;;;;14.35;8.30;;;;;;;-144.32;100.00;68061.97;10416660;28;20042;-77
2022/12/08 12:55:54;;;;;;;14.85;8.77;;;;;;;-144.32;100.00;68061.97;10432215;28;20018;-78
2022/12/08 13:01:12;;;;;;;13.00;8.13;;;;;;;-144.32;100.00;68061.97;10440978;28;20029;-82
2022/12/08 13:06:20;;;;;;;12.55;7.78;;;;;;;-144.32;100.00;68061.97;10392250;28;20505;-80
2022/12/08 13:11:22;;;;;;;12.80;7.95;;;;;;;-144.32;100.00;68061.97;10375794;28;20220;-80
2022/12/08 13:16:26;;;;;;;11.98;8.27;;;;;;;-144.32;100.00;68061.97;10381573;28;20434;-78
2022/12/08 13:21:33;;;;;;;12.25;8.50;;;;;;;-144.32;100.00;68061.97;10376161;28;20375;-79
2022/12/08 13:26:46;;;;;;;11.93;8.10;;;;;;;-144.32;100.00;68061.97;10382490;28;20712;-79
2022/12/08 13:31:47;;;;;;;12.82;8.48;;;;;;;-144.32;100.00;68061.97;10382981;28;20052;-80
2022/12/08 13:37:09;;;;;;;14.40;8.82;;;;;;;-144.32;100.00;68061.97;10372868;28;20056;-80
2022/12/08 13:42:41;;;;;;;12.43;8.40;;;;;;;-144.32;100.00;68061.97;10377032;28;20410;-79
2022/12/08 13:47:44;;;;;;;12.50;8.35;;;;;;;-144.32;100.00;68061.97;10391215;28;20037;-82
2022/12/08 13:53:00;;;;;;;14.10;8.77;;;;;;;-144.32;100.00;68061.97;10372693;28;20042;-80
2022/12/08 13:58:04;;;;;;;13.88;8.02;;;;;;;-144.32;100.00;68061.97;10378943;28;20045;-80
2022/12/08 14:03:09;;;;;;;14.55;8.77;;;;;;;-144.32;100.00;68061.97;10377316;28;20033;-78
2022/12/08 14:08:23;;;;;;;13.73;8.48;;;;;;;-144.32;100.00;68061.97;10395266;28;20104;-82
2022/12/08 14:13:24;;;;;;;;;;;;;;;-144.32;100.00;68061.97;10382421;28;20489;-80
2022/12/08 14:18:30;;;;;;;13.68;8.20;;;;;;;-144.32;100.00;68061.97;10375574;28;19937;-81
2022/12/08 14:23:35;;;;;;;10.32;7.10;;;;;;;-144.32;100.00;68061.97;10386524;28;20081;-77
2022/12/08 14:28:37;;;;;;;16.67;8.43;;;;;;;-144.32;100.00;68061.97;10391032;28;20044;-79
2022/12/08 14:33:39;;;;;;;12.82;7.03;;;;;;;-144.32;100.00;68061.97;10377665;28;20046;-82
2022/12/08 14:38:40;;;;;;;11.02;7.15;;;;;;;-144.32;100.00;68061.97;10383915;28;20085;-80
2022/12/08 14:43:41;;;;;;;13.32;7.32;;;;;;;-144.32;100.00;68061.97;10379818;28;20100;-81
2022/12/08 14:48:43;;;;;;;11.82;6.82;;;;;;;-144.32;100.00;68061.97;10374191;28;20104;-80
2022/12/08 14:54:04;;;;;;;12.52;6.78;;;;;;;-144.32;100.00;68061.97;10372429;28;20033;-80
2022/12/08 14:59:09;;;;;;;12.88;7.03;;;;;;;-144.32;100.00;68061.97;10377758;28;20041;-82
2022/12/08 15:04:13;;;;;;;11.65;7.57;;;;;;;-144.32;100.00;68061.97;10422467;28;20040;-79
2022/12/08 15:09:17;;;;;;;12.85;7.70;;;;;;;-144.32;100.00;68061.97;10415518;28;20030;-80
2022/12/08 15:14:54;;;;;;;10.30;6.70;;;;;;;-144.32;100.00;68061.97;10422661;28;20057;-80
2022/12/08 15:19:59;;;;;;;14.48;8.23;;;;;;;-144.32;100.00;68061.97;10409082;28;20057;-78
2022/12/08 15:24:59;;;;;;;13.50;7.95;;;;;;;-144.32;100.00;68061.97;10425277;28;20054;-77
2022/12/08 15:30:00;;;;;;;12.77;8.07;;;;;;;-144.32;100.00;68061.97;10419434;28;20477;-80
2022/12/08 15:35:02;;;;;;;13.25;7.90;;;;;;;-144.32;100.00;68061.97;10384694;28;20046;-80
2022/12/08 15:40:03;;;;;;;13.15;8.60;;;;;;;-144.32;100.00;68061.97;10396596;28;20045;-80
2022/12/08 15:45:04;;;;;;;15.95;8.52;;;;;;;-144.32;100.00;68061.97;10385649;28;20181;-81
2022/12/08 15:50:05;;;;;;;14.15;7.68;;;;;;;-144.32;100.00;68061.97;10383052;28;20144;-80
2022/12/08 15:55:10;;;;;;;14.05;8.27;;;;;;;-144.32;100.00;68061.97;10390367;28;20050;-79
2022/12/08 16:00:33;;;;;;;13.07;8.45;;;;;;;-144.32;100.00;68061.97;10416878;28;20113;-78
2022/12/08 16:05:33;;;;;;;11.10;7.30;;;;;;;-144.32;100.00;68061.97;10431529;28;20037;-77
2022/12/08 16:10:33;;;;;;;14.20;8.45;;;;;;;-144.32;100.00;68061.97;10434317;28;20041;-75
2022/12/08 16:15:37;;;;;;;12.30;7.93;;;;;;;-144.32;100.00;68061.97;10402288;28;20050;-79
2022/12/08 16:20:37;;;;;;;13.77;8.65;;;;;;;-144.32;100.00;68061.97;10377665;28;20037;-78
2022/12/08 16:25:38;;;;;;;13.15;8.68;;;;;;;-144.32;100.00;68061.97;10384856;28;20058;-80
2022/12/08 16:30:39;;;;;;;15.52;8.77;;;;;;;-144.32;100.00;68061.97;10371847;28;20076;-78
2022/12/08 16:35:40;;;;;;;14.02;8.65;;;;;;;-144.32;100.00;68061.97;10391706;28;20475;-80
2022/12/08 16:46:16;;;;;;;15.60;7.65;;;;;;;-144.32;100.00;68061.97;10388335;28;20148;-79
2022/12/08 16:51:18;;;;;;;15.00;8.15;;;;;;;-144.32;100.00;68061.97;10389830;28;20049;-79
2022/12/08 16:56:21;;;;;;;13.38;7.97;;;;;;;-144.32;100.00;68061.97;10392492;28;20041;-80
2022/12/08 17:01:22;;;;;;;13.50;7.85;;;;;;;-144.32;100.00;68061.97;10381983;28;20088;-79
2022/12/08 17:06:23;;;;;;;16.60;9.13;;;;;;;-144.32;100.00;68061.97;10381450;28;20050;-80
2022/12/08 17:11:25;;;;;;;15.73;9.15;;;;;;;-144.32;100.00;68061.97;10382667;28;20054;-77
2022/12/08 17:16:25;;;;;;;15.90;9.10;;;;;;;-144.32;100.00;68061.97;10380061;28;20123;-79
2022/12/08 17:21:27;;;;;;;14.32;9.65;;;;;;;-144.32;100.00;68061.97;10391596;28;20075;-77
2022/12/08 17:26:28;;;;;;;15.63;9.10;;;;;;;-144.32;100.00;68061.97;10381237;28;20037;-78
2022/12/08 17:31:30;;;;;;;18.52;9.45;;;;;;;-144.32;100.00;68061.97;10379586;28;20089;-79
2022/12/08 17:36:32;;;;;;;13.00;9.23;;;;;;;-144.32;100.00;68061.97;10371540;28;20117;-80
2022/12/08 17:41:33;;;;;;;16.17;10.60;;;;;;;-144.32;100.00;68061.97;10392639;28;20037;-79
2022/12/08 17:46:34;;;;;;;15.32;9.75;;;;;;;-144.32;100.00;68061.97;10404887;28;20045;-79
2022/12/08 17:51:34;;;;;;;18.30;10.27;;;;;;;-144.32;100.00;68061.97;10411750;28;20061;-80
2022/12/08 17:56:36;;;;;;;16.42;10.32;;;;;;;-144.32;100.00;68061.97;10376536;28;20064;-82
2022/12/08 18:01:37;;;;;;;17.63;10.05;;;;;;;-144.32;100.00;68061.97;10371555;28;20058;-82
2022/12/08 18:06:39;;;;;;;14.95;9.93;;;;;;;-144.32;100.00;68061.97;10373149;28;20055;-79
2022/12/08 18:11:40;;;;;;;16.40;10.45;;;;;;;-144.32;100.00;68061.97;10383088;28;20042;-80
2022/12/08 18:16:45;;;;;;;15.48;10.45;;;;;;;-144.32;100.00;68061.97;10368307;28;20516;-79
2022/12/08 18:21:45;;;;;;;14.95;8.10;;;;;;;-144.32;100.00;68061.97;10370046;28;20041;-79
2022/12/08 18:26:46;;;;;;;16.27;9.43;;;;;;;-144.32;100.00;68061.97;10364402;28;20045;-78
2022/12/08 18:31:48;;;;;;;15.57;8.85;;;;;;;-144.32;100.00;68061.97;10354885;28;20168;-79
2022/12/08 18:36:48;;;;;;;14.77;9.77;;;;;;;-144.32;100.00;68061.97;10361518;28;20038;-78
2022/12/08 18:41:50;;;;;;;15.98;9.68;;;;;;;-144.32;100.00;68061.97;10397843;28;20537;-78
2022/12/08 18:46:50;;;;;;;15.85;9.57;;;;;;;-144.32;100.00;68061.97;10382059;28;20034;-78
2022/12/08 18:51:51;;;;;;;15.80;10.25;;;;;;;-144.32;100.00;68061.97;10377198;28;20864;-80
2022/12/08 18:56:55;;;;;;;21.02;12.32;;;;;;;-144.32;100.00;68061.97;10389082;28;20142;-79
2022/12/08 19:01:56;;;;;;;;;;;;;;;-144.32;100.00;68061.97;10403455;28;20076;-79
2022/12/08 19:06:57;;;;;;;19.08;11.45;;;;;;;-144.32;100.00;68061.97;10407863;28;19932;-78
2022/12/08 19:11:57;;;;;;;19.85;11.77;;;;;;;-144.32;100.00;68061.97;10438355;28;20097;-79
2022/12/08 19:16:58;;;;;;;24.33;12.85;;;;;;;-144.32;100.00;68061.97;10420789;28;20091;-79
2022/12/08 19:21:59;;;;;;;21.65;12.35;;;;;;;-144.32;100.00;68061.97;10440571;28;20030;-80
2022/12/08 19:27:00;;;;;;;22.90;12.55;;;;;;;-144.32;100.00;68061.97;10376844;28;20065;-79
2022/12/08 19:32:02;;;;;;;23.15;12.10;;;;;;;-144.32;100.00;68061.97;10372715;28;20054;-80
2022/12/08 19:37:03;;;;;;;24.65;12.32;;;;;;;-144.32;100.00;68061.97;10382912;28;20103;-79
2022/12/08 19:47:42;;;;;;;25.27;13.77;;;;;;;-144.32;100.00;68061.97;10375761;28;20121;-78
2022/12/08 19:52:46;;;;;;;21.55;11.90;;;;;;;-144.32;100.00;68061.97;10375160;28;20054;-80
2022/12/08 19:57:47;;;;;;;25.42;13.25;;;;;;;-144.32;100.00;68061.97;10355235;28;20077;-80
2022/12/08 20:02:48;;;;;;;25.45;13.90;;;;;;;-144.32;100.00;68061.97;10385398;28;20127;-80
2022/12/08 20:07:48;;;;;;;23.30;13.32;;;;;;;-144.32;100.00;68061.97;10424016;28;20171;-79
2022/12/08 20:12:49;;;;;;;24.60;14.40;;;;;;;-144.32;100.00;68061.97;10418060;28;20048;-79
2022/12/08 20:17:50;;;;;;;23.65;13.00;;;;;;;-144.32;100.00;68061.97;10422791;28;20123;-78
2022/12/08 20:22:50;;;;;;;25.42;13.32;;;;;;;-144.32;100.00;68061.97;10411177;28;20045;-77
2022/12/08 20:27:51;;;;;;;27.48;14.90;;;;;;;-144.32;100.00;68061.97;10418251;28;20884;-78
2022/12/08 20:32:52;;;;;;;28.60;15.40;;;;;;;-144.32;100.00;68061.97;10426371;28;20050;-80
2022/12/08 20:37:53;;;;;;;28.40;15.55;;;;;;;-144.32;100.00;68061.97;10435240;28;20400;-80
2022/12/08 20:42:56;;;;;;;27.77;15.27;;;;;;;-144.32;100.00;68061.97;10396674;28;20106;-79
2022/12/08 20:47:59;;;;;;;32.15;16.20;;;;;;;-144.32;100.00;68061.97;10427209;28;20404;-84
2022/12/08 20:52:59;;;;;;;26.57;15.53;;;;;;;-144.32;100.00;68061.97;10424901;28;20093;-78
2022/12/08 20:58:02;;;;;;;31.17;15.93;;;;;;;-144.32;100.00;68061.97;10425850;28;20072;-79
2022/12/08 21:03:06;;;;;;;25.50;13.80;;;;;;;-144.32;100.00;68061.97;10421103;28;20045;-79
2022/12/08 21:08:06;;;;;;;26.02;14.57;;;;;;;-144.32;100.00;68061.97;10437906;28;20032;-83
2022/12/08 21:13:07;;;;;;;23.38;14.23;;;;;;;-144.32;100.00;68061.97;10431180;28;20065;-81
2022/12/08 21:18:07;;;;;;;18.85;12.95;;;;;;;-144.32;100.00;68061.97;10445378;28;20482;-78
2022/12/08 21:23:10;;;;;;;20.02;13.43;;;;;;;-144.32;100.00;68061.97;10463283;28;20048;-79
2022/12/08 21:28:14;;;;;;;23.75;14.65;;;;;;;-144.32;100.00;68061.97;10461908;28;20659;-79
2022/12/08 21:33:14;;;;;;;25.85;15.48;;;;;;;-144.32;100.00;68061.97;10454369;28;20049;-80
2022/12/08 21:38:15;;;;;;;25.38;14.35;;;;;;;-144.32;100.00;68061.97;10416289;28;20049;-83
2022/12/08 21:43:21;;;;;;;22.40;14.27;;;;;;;-144.32;100.00;68061.97;10427595;28;20037;-83
2022/12/08 21:48:22;;;;;;;23.83;14.25;;;;;;;-144.32;100.00;68061.97;10424140;28;20104;-80
2022/12/08 21:53:25;;;;;;;22.63;13.73;;;;;;;-144.32;100.00;68061.97;10427239;28;20072;-80
2022/12/08 21:58:27;;;;;;;;;;;;;;;-144.32;100.00;68061.97;10428901;28;20050;-82
2022/12/08 22:03:28;;;;;;;23.05;13.07;;;;;;;-144.32;100.00;68061.97;10432103;28;19929;-85
2022/12/08 22:08:29;;;;;;;18.10;12.18;;;;;;;-144.32;100.00;68061.97;10431580;28;20413;-82
2022/12/08 22:13:32;;;;;;;15.95;10.98;;;;;;;-144.32;100.00;68061.97;10421432;28;20049;-83
2022/12/08 22:18:34;;;;;;;20.63;12.77;;;;;;;-144.32;100.00;68061.97;10451596;28;20060;-82
2022/12/08 22:23:34;;;;;;;17.83;11.70;;;;;;;-144.32;100.00;68061.97;10467186;28;20078;-80
2022/12/08 22:28:40;;;;;;;18.35;11.45;;;;;;;-144.32;100.00;68061.97;10484862;28;20055;-81
2022/12/08 22:33:42;;;;;;;18.88;11.57;;;;;;;-144.32;100.00;68061.97;10480414;28;20437;-83
2022/12/08 22:38:43;;;;;;;19.65;12.00;;;;;;;-144.32;100.00;68061.97;10442504;28;20041;-83